createdAt,value
2023-05-11T00:00:23.658Z,101494.47
2023-05-11T00:02:52.134Z,101504.13
2023-05-11T00:05:22.048Z,101494.47
2023-05-11T00:07:50.765Z,101500.63
2023-05-11T00:10:19.663Z,101496.22
2023-05-11T00:12:48.411Z,101497.09
2023-05-11T00:15:16.852Z,101497.97
2023-05-11T00:17:46.883Z,101496.22
2023-05-11T00:20:15.382Z,101499.75
2023-05-11T00:22:45.340Z,101498.84
2023-05-11T00:25:14.222Z,101499.75
2023-05-11T00:27:45.988Z,101490.06
2023-05-11T00:30:16.345Z,101494.47
2023-05-11T00:32:46.745Z,101485.69
2023-05-11T00:35:15.131Z,101494.47
2023-05-11T00:37:48.355Z,101495.34
2023-05-11T00:40:16.993Z,101488.31
2023-05-11T00:42:45.496Z,101483.06
2023-05-11T00:45:14.185Z,101495.38
2023-05-11T00:47:43.424Z,101490.06
2023-05-11T00:50:13.855Z,101488.34
2023-05-11T00:52:43.199Z,101484.81
2023-05-11T00:55:12.788Z,101487.47
2023-05-11T00:57:41.511Z,101488.31
2023-05-11T01:00:11.362Z,101490.06
2023-05-11T01:02:40.576Z,101492.72
2023-05-11T01:05:10.057Z,101484.81
2023-05-11T01:07:49.075Z,101489.22
2023-05-11T01:10:29.698Z,101490.97
2023-05-11T01:13:06.817Z,101484.81
2023-05-11T01:15:40.467Z,101480.44
2023-05-11T01:18:18.541Z,101484.78
2023-05-11T01:20:49.890Z,101485.69
2023-05-11T01:23:46.765Z,101495.34
2023-05-11T01:26:48.524Z,101491.84
2023-05-11T01:29:49.898Z,101488.31
2023-05-11T01:32:25.105Z,101489.22
2023-05-11T01:35:02.591Z,101487.44
2023-05-11T01:37:33.869Z,101487.44
2023-05-11T01:40:10.944Z,101494.47
2023-05-11T01:42:45.929Z,101493.59
2023-05-11T01:45:16.763Z,101489.22
2023-05-11T01:47:50.666Z,101490.94
2023-05-11T01:50:21.969Z,101480.44
2023-05-11T01:52:52.364Z,101491.84
2023-05-11T01:55:23.868Z,101498.84
2023-05-11T01:57:55.850Z,101497.97
2023-05-11T02:00:25.177Z,101496.22
2023-05-11T02:02:56.148Z,101496.19
2023-05-11T02:05:26.005Z,101499.75
2023-05-11T02:07:57.272Z,101498.84
2023-05-11T02:10:28.269Z,101506.75
2023-05-11T02:12:57.781Z,101507.63
2023-05-11T02:15:27.799Z,101511.13
2023-05-11T02:17:58.989Z,101519.03
2023-05-11T02:20:28.772Z,101516.38
2023-05-11T02:22:58.571Z,101519.03
2023-05-11T02:25:28.144Z,101515.53
2023-05-11T02:27:58.925Z,101519.03
2023-05-11T02:30:30.430Z,101519.91
2023-05-11T02:33:07.319Z,101513.78
2023-05-11T02:35:43.005Z,101520.81
2023-05-11T02:38:12.716Z,101520.78
2023-05-11T02:40:48.591Z,101519.91
2023-05-11T02:43:25.663Z,101521.66
2023-05-11T02:46:00.036Z,101526.03
2023-05-11T02:48:33.984Z,101522.53
2023-05-11T02:51:03.912Z,101521.63
2023-05-11T02:53:34.997Z,101525.16
2023-05-11T02:56:03.817Z,101519.00
2023-05-11T02:58:32.883Z,101527.81
2023-05-11T03:01:02.296Z,101518.13
2023-05-11T03:03:32.659Z,101524.25
2023-05-11T03:06:01.397Z,101526.00
2023-05-11T03:08:29.857Z,101522.50
2023-05-11T03:11:00.599Z,101523.38
2023-05-11T03:13:30.164Z,101524.25
2023-05-11T03:16:00.848Z,101533.06
2023-05-11T03:18:31.627Z,101523.38
2023-05-11T03:21:03.144Z,101523.38
2023-05-11T03:23:32.313Z,101521.63
2023-05-11T03:26:01.644Z,101523.38
2023-05-11T03:28:31.413Z,101519.00
2023-05-11T03:31:00.415Z,101521.63
2023-05-11T03:33:28.970Z,101520.75
2023-05-11T03:36:02.694Z,101511.97
2023-05-11T03:38:32.444Z,101510.22
2023-05-11T03:41:02.201Z,101513.75
2023-05-11T03:43:33.406Z,101510.22
2023-05-11T03:46:03.864Z,101519.00
2023-05-11T03:48:33.534Z,101519.03
2023-05-11T03:51:05.725Z,101512.00
2023-05-11T03:53:35.075Z,101514.63
2023-05-11T03:56:04.819Z,101512.88
2023-05-11T03:58:34.105Z,101515.50
2023-05-11T04:01:02.504Z,101519.00
2023-05-11T04:03:31.096Z,101515.53
2023-05-11T04:05:59.563Z,101512.00
2023-05-11T04:08:29.789Z,101502.38
2023-05-11T04:10:58.121Z,101514.66
2023-05-11T04:13:27.052Z,101511.13
2023-05-11T04:15:55.961Z,101519.91
2023-05-11T04:18:24.850Z,101522.53
2023-05-11T04:20:53.212Z,101521.69
2023-05-11T04:23:22.828Z,101531.31
2023-05-11T04:25:56.395Z,101529.56
2023-05-11T04:28:27.830Z,101525.16
2023-05-11T04:30:57.064Z,101525.16
2023-05-11T04:33:26.245Z,101515.53
2023-05-11T04:35:56.222Z,101526.06
2023-05-11T04:38:25.606Z,101527.84
2023-05-11T04:40:56.026Z,101529.56
2023-05-11T04:43:25.160Z,101519.03
2023-05-11T04:45:53.564Z,101520.81
2023-05-11T04:48:22.401Z,101519.06
2023-05-11T04:50:51.163Z,101518.16
2023-05-11T04:53:20.469Z,101517.31
2023-05-11T04:55:48.985Z,101527.84
2023-05-11T04:58:20.875Z,101519.03
2023-05-11T05:00:49.271Z,101519.06
2023-05-11T05:03:17.885Z,101533.09
2023-05-11T05:05:46.249Z,101536.63
2023-05-11T05:08:14.745Z,101539.25
2023-05-11T05:10:43.146Z,101532.22
2023-05-11T05:13:11.550Z,101534.84
2023-05-11T05:15:41.315Z,101536.63
2023-05-11T05:18:09.909Z,101538.38
2023-05-11T05:20:38.341Z,101540.13
2023-05-11T05:23:06.908Z,101541.88
2023-05-11T05:25:35.405Z,101541.91
2023-05-11T05:28:03.792Z,101548.91
2023-05-11T05:30:32.366Z,101554.19
2023-05-11T05:33:02.184Z,101551.53
2023-05-11T05:35:30.728Z,101548.03
2023-05-11T05:37:59.073Z,101554.19
2023-05-11T05:40:29.093Z,101566.47
2023-05-11T05:42:57.546Z,101562.94
2023-05-11T05:45:26.123Z,101568.22
2023-05-11T05:47:55.162Z,101569.09
2023-05-11T05:50:25.119Z,101573.50
2023-05-11T05:52:55.259Z,101580.53
2023-05-11T05:55:24.761Z,101577.00
2023-05-11T05:57:53.742Z,101580.50
2023-05-11T06:00:22.704Z,101586.66
2023-05-11T06:02:51.464Z,101594.56
2023-05-11T06:05:20.076Z,101594.53
2023-05-11T06:08:01.781Z,101597.19
2023-05-11T06:10:39.070Z,101598.97
2023-05-11T06:13:08.939Z,101601.63
2023-05-11T06:15:37.339Z,101601.63
2023-05-11T06:18:06.268Z,101602.47
2023-05-11T06:20:34.730Z,101606.84
2023-05-11T06:23:04.656Z,101606.84
2023-05-11T06:25:35.977Z,101604.19
2023-05-11T06:28:04.764Z,101606.84
2023-05-11T06:30:33.211Z,101597.97
2023-05-11T06:33:01.662Z,101600.59
2023-05-11T06:35:30.405Z,101605.88
2023-05-11T06:37:59.292Z,101610.28
2023-05-11T06:40:30.173Z,101605.84
2023-05-11T06:42:58.646Z,101601.44
2023-05-11T06:45:27.873Z,101611.06
2023-05-11T06:47:56.610Z,101611.00
2023-05-11T06:50:27.899Z,101599.50
2023-05-11T06:52:56.721Z,101611.78
2023-05-11T06:55:27.833Z,101601.22
2023-05-11T06:57:58.143Z,101613.50
2023-05-11T07:00:27.156Z,101613.47
2023-05-11T07:02:56.097Z,101624.00
2023-05-11T07:05:24.707Z,101617.88
2023-05-11T07:07:53.189Z,101619.56
2023-05-11T07:10:21.813Z,101616.00
2023-05-11T07:12:51.263Z,101623.84
2023-05-11T07:15:21.218Z,101614.06
2023-05-11T07:17:50.175Z,101618.41
2023-05-11T07:20:19.185Z,101622.78
2023-05-11T07:22:47.694Z,101625.34
2023-05-11T07:25:16.089Z,101631.47
2023-05-11T07:27:44.573Z,101620.03
2023-05-11T07:30:13.973Z,101619.09
2023-05-11T07:32:46.855Z,101626.19
2023-05-11T07:35:16.255Z,101625.28
2023-05-11T07:37:45.351Z,101624.41
2023-05-11T07:40:13.994Z,101624.31
2023-05-11T07:42:42.716Z,101629.56
2023-05-11T07:45:12.058Z,101628.59
2023-05-11T07:47:40.431Z,101631.22
2023-05-11T07:50:11.550Z,101631.13
2023-05-11T07:52:39.916Z,101631.88
2023-05-11T07:55:09.626Z,101635.28
2023-05-11T07:57:38.151Z,101633.41
2023-05-11T08:00:10.990Z,101638.63
2023-05-11T08:02:40.382Z,101632.34
2023-05-11T08:05:11.711Z,101633.94
2023-05-11T08:07:41.634Z,101632.97
2023-05-11T08:10:11.523Z,101632.97
2023-05-11T08:12:43.323Z,101640.03
2023-05-11T08:15:12.910Z,101638.16
2023-05-11T08:17:43.300Z,101642.38
2023-05-11T08:20:14.610Z,101641.41
2023-05-11T08:22:43.156Z,101643.03
2023-05-11T08:25:12.203Z,101644.78
2023-05-11T08:27:40.891Z,101647.41
2023-05-11T08:30:11.973Z,101652.59
2023-05-11T08:32:50.486Z,101651.59
2023-05-11T08:35:27.786Z,101655.00
2023-05-11T08:37:56.280Z,101657.50
2023-05-11T08:40:28.466Z,101660.09
2023-05-11T08:42:58.559Z,101652.91
2023-05-11T08:45:28.224Z,101658.91
2023-05-11T08:47:57.911Z,101663.13
2023-05-11T08:50:28.641Z,101660.31
2023-05-11T08:52:57.293Z,101653.13
2023-05-11T08:55:27.710Z,101655.78
2023-05-11T08:57:59.850Z,101654.84
2023-05-11T09:00:29.530Z,101656.50
2023-05-11T09:02:59.806Z,101657.38
2023-05-11T09:05:30.134Z,101658.34
2023-05-11T09:08:03.270Z,101656.53
2023-05-11T09:10:32.491Z,101659.16
2023-05-11T09:13:01.100Z,101651.09
2023-05-11T09:15:29.660Z,101665.09
2023-05-11T09:18:05.998Z,101663.81
2023-05-11T09:20:36.564Z,101665.19
2023-05-11T09:23:04.891Z,101660.59
2023-05-11T09:25:35.134Z,101668.44
2023-05-11T09:28:03.918Z,101668.31
2023-05-11T09:30:32.678Z,101661.06
2023-05-11T09:33:02.464Z,101659.22
2023-05-11T09:35:33.373Z,101662.41
2023-05-11T09:38:06.180Z,101652.84
2023-05-11T09:40:37.874Z,101654.91
2023-05-11T09:43:18.509Z,101650.59
2023-05-11T09:45:48.758Z,101654.88
2023-05-11T09:48:28.803Z,101653.91
2023-05-11T09:51:09.056Z,101648.59
2023-05-11T09:53:43.573Z,101643.66
2023-05-11T09:56:12.765Z,101653.81
2023-05-11T09:58:49.547Z,101660.88
2023-05-11T10:01:20.473Z,101656.97
2023-05-11T10:03:51.848Z,101651.13
2023-05-11T10:06:21.087Z,101663.28
2023-05-11T10:08:51.397Z,101660.34
2023-05-11T10:11:26.011Z,101653.56
2023-05-11T10:13:55.332Z,101652.97
2023-05-11T10:16:25.056Z,101656.44
2023-05-11T10:18:53.861Z,101657.94
2023-05-11T10:21:23.193Z,101655.72
2023-05-11T10:23:53.759Z,101656.06
2023-05-11T10:26:22.640Z,101661.59
2023-05-11T10:28:52.245Z,101659.16
2023-05-11T10:31:24.282Z,101655.53
2023-05-11T10:33:53.283Z,101651.94
2023-05-11T10:36:25.232Z,101655.31
2023-05-11T10:38:56.450Z,101657.81
2023-05-11T10:41:49.037Z,101653.97
2023-05-11T10:44:52.080Z,101653.31
2023-05-11T10:48:07.046Z,101651.78
2023-05-11T10:50:58.659Z,101661.06
2023-05-11T10:53:59.330Z,101657.25
2023-05-11T10:56:58.161Z,101657.25
2023-05-11T11:00:06.992Z,101660.56
2023-05-11T11:02:37.789Z,101650.00
2023-05-11T11:05:10.950Z,101654.63
2023-05-11T11:08:04.931Z,101653.28
2023-05-11T11:10:40.438Z,101656.94
2023-05-11T11:13:11.974Z,101649.00
2023-05-11T11:16:13.253Z,101657.38
2023-05-11T11:18:45.226Z,101650.38
2023-05-11T11:21:16.701Z,101653.00
2023-05-11T11:23:50.508Z,101649.94
2023-05-11T11:26:58.701Z,101659.31
2023-05-11T11:29:28.767Z,101651.69
2023-05-11T11:32:36.288Z,101650.88
2023-05-11T11:35:08.135Z,101647.91
2023-05-11T11:38:11.082Z,101650.81
2023-05-11T11:40:50.560Z,101642.53
2023-05-11T11:43:25.106Z,101649.75
2023-05-11T11:45:56.199Z,101646.28
2023-05-11T11:48:37.341Z,101640.78
2023-05-11T11:51:11.073Z,101643.41
2023-05-11T11:54:03.975Z,101639.19
2023-05-11T11:56:49.415Z,101639.19
2023-05-11T11:59:20.293Z,101642.66
2023-05-11T12:01:55.581Z,101634.06
2023-05-11T12:04:59.736Z,101634.50
2023-05-11T12:07:34.536Z,101636.28
2023-05-11T12:10:05.815Z,101634.25
2023-05-11T12:12:36.680Z,101637.53
2023-05-11T12:15:10.820Z,101636.94
2023-05-11T12:17:42.712Z,101640.78
2023-05-11T12:20:17.612Z,101633.97
2023-05-11T12:22:49.381Z,101627.09
2023-05-11T12:25:20.257Z,101637.19
2023-05-11T12:27:55.450Z,101626.81
2023-05-11T12:30:28.543Z,101631.66
2023-05-11T12:32:59.735Z,101628.47
2023-05-11T12:35:30.677Z,101625.66
2023-05-11T12:38:02.860Z,101624.31
2023-05-11T12:40:33.280Z,101625.44
2023-05-11T12:43:04.461Z,101624.72
2023-05-11T12:45:35.394Z,101627.22
2023-05-11T12:48:05.076Z,101625.88
2023-05-11T12:50:45.635Z,101624.84
2023-05-11T12:53:16.486Z,101636.44
2023-05-11T12:55:44.929Z,101629.19
2023-05-11T12:58:16.294Z,101626.38
2023-05-11T13:00:58.447Z,101642.03
2023-05-11T13:03:30.062Z,101634.34
2023-05-11T13:06:09.194Z,101642.13
2023-05-11T13:08:41.171Z,101636.88
2023-05-11T13:11:23.543Z,101634.78
2023-05-11T13:13:52.533Z,101629.47
2023-05-11T13:16:31.124Z,101634.66
2023-05-11T13:19:02.221Z,101636.31
2023-05-11T13:21:33.742Z,101632.59
2023-05-11T13:24:04.265Z,101629.19
2023-05-11T13:26:34.249Z,101620.25
2023-05-11T13:29:10.730Z,101624.91
2023-05-11T13:31:47.869Z,101623.75
2023-05-11T13:34:17.359Z,101618.91
2023-05-11T13:36:48.633Z,101621.28
2023-05-11T13:39:18.099Z,101619.72
2023-05-11T13:41:47.872Z,101620.63
2023-05-11T13:44:17.239Z,101619.06
2023-05-11T13:46:46.995Z,101624.69
2023-05-11T13:49:15.832Z,101622.09
2023-05-11T13:51:44.107Z,101624.72
2023-05-11T13:54:13.261Z,101612.56
2023-05-11T13:56:41.824Z,101615.91
2023-05-11T13:59:10.478Z,101624.16
2023-05-11T14:01:38.951Z,101622.09
2023-05-11T14:04:08.734Z,101623.03
2023-05-11T14:06:37.897Z,101619.06
2023-05-11T14:09:06.359Z,101620.63
2023-05-11T14:11:35.120Z,101629.03
2023-05-11T14:14:04.340Z,101615.69
2023-05-11T14:16:32.990Z,101621.25
2023-05-11T14:19:01.365Z,101619.16
2023-05-11T14:21:32.587Z,101617.41
2023-05-11T14:24:11.478Z,101624.31
2023-05-11T14:26:41.618Z,101614.56
2023-05-11T14:29:10.103Z,101612.66
2023-05-11T14:31:39.124Z,101620.94
2023-05-11T14:34:07.768Z,101612.28
2023-05-11T14:36:38.188Z,101619.38
2023-05-11T14:39:06.634Z,101621.56
2023-05-11T14:41:35.019Z,101609.66
2023-05-11T14:44:03.390Z,101619.88
2023-05-11T14:46:31.822Z,101622.03
2023-05-11T14:49:00.789Z,101617.97
2023-05-11T14:51:29.415Z,101621.31
2023-05-11T14:53:59.244Z,101622.44
2023-05-11T14:56:28.078Z,101621.94
2023-05-11T14:58:57.001Z,101626.84
2023-05-11T15:01:25.510Z,101627.75
2023-05-11T15:03:54.027Z,101618.38
2023-05-11T15:06:23.612Z,101618.84
2023-05-11T15:08:54.897Z,101629.91
2023-05-11T15:11:25.307Z,101629.81
2023-05-11T15:13:54.021Z,101633.38
2023-05-11T15:16:22.855Z,101634.28
2023-05-11T15:18:51.622Z,101631.56
2023-05-11T15:21:25.402Z,101633.16
2023-05-11T15:23:53.744Z,101630.16
2023-05-11T15:26:24.040Z,101632.22
2023-05-11T15:28:52.786Z,101623.72
2023-05-11T15:31:22.327Z,101636.06
2023-05-11T15:33:51.202Z,101628.06
2023-05-11T15:36:19.881Z,101634.81
2023-05-11T15:38:48.241Z,101635.19
2023-05-11T15:41:17.617Z,101630.03
2023-05-11T15:43:47.447Z,101640.19
2023-05-11T15:46:15.820Z,101633.31
2023-05-11T15:48:44.246Z,101641.47
2023-05-11T15:51:12.987Z,101641.59
2023-05-11T15:53:42.506Z,101647.00
2023-05-11T15:56:11.654Z,101652.50
2023-05-11T15:58:40.261Z,101644.66
2023-05-11T16:01:10.272Z,101650.06
2023-05-11T16:03:38.859Z,101647.31
2023-05-11T16:06:08.173Z,101641.91
2023-05-11T16:08:36.705Z,101646.47
2023-05-11T16:11:06.074Z,101647.53
2023-05-11T16:13:34.390Z,101643.94
2023-05-11T16:16:02.996Z,101644.75
2023-05-11T16:18:32.744Z,101651.16
2023-05-11T16:21:01.576Z,101644.97
2023-05-11T16:23:30.234Z,101650.22
2023-05-11T16:26:00.750Z,101648.59
2023-05-11T16:28:29.222Z,101657.78
2023-05-11T16:30:59.332Z,101655.56
2023-05-11T16:33:28.186Z,101654.97
2023-05-11T16:35:58.093Z,101650.00
2023-05-11T16:38:26.522Z,101660.84
2023-05-11T16:40:55.424Z,101659.25
2023-05-11T16:43:23.812Z,101668.31
2023-05-11T16:45:52.793Z,101662.25
2023-05-11T16:48:21.730Z,101663.22
2023-05-11T16:50:50.931Z,101661.50
2023-05-11T16:53:22.305Z,101665.19
2023-05-11T16:55:51.020Z,101661.78
2023-05-11T16:58:20.571Z,101663.66
2023-05-11T17:00:49.913Z,101659.41
2023-05-11T17:03:19.828Z,101663.03
2023-05-11T17:05:48.814Z,101668.38
2023-05-11T17:08:17.416Z,101661.41
2023-05-11T17:10:47.349Z,101661.56
2023-05-11T17:13:15.945Z,101660.78
2023-05-11T17:15:44.457Z,101669.69
2023-05-11T17:18:13.841Z,101670.66
2023-05-11T17:20:44.340Z,101670.06
2023-05-11T17:23:12.901Z,101667.63
2023-05-11T17:25:42.774Z,101676.66
2023-05-11T17:28:14.323Z,101684.69
2023-05-11T17:30:48.572Z,101683.06
2023-05-11T17:33:17.810Z,101684.06
2023-05-11T17:35:46.525Z,101689.44
2023-05-11T17:38:15.013Z,101692.22
2023-05-11T17:40:44.482Z,101690.56
2023-05-11T17:43:14.228Z,101695.06
2023-05-11T17:45:42.716Z,101702.25
2023-05-11T17:48:11.726Z,101700.53
2023-05-11T17:50:40.284Z,101703.22
2023-05-11T17:53:08.748Z,101707.69
2023-05-11T17:55:40.431Z,101707.78
2023-05-11T17:58:08.796Z,101700.81
2023-05-11T18:00:38.716Z,101699.13
2023-05-11T18:03:07.407Z,101705.31
2023-05-11T18:05:48.650Z,101706.25
2023-05-11T18:08:17.696Z,101717.81
2023-05-11T18:10:46.852Z,101711.72
2023-05-11T18:13:17.293Z,101726.75
2023-05-11T18:15:47.878Z,101720.69
2023-05-11T18:18:16.314Z,101722.50
2023-05-11T18:20:46.480Z,101719.91
2023-05-11T18:23:15.243Z,101718.19
2023-05-11T18:25:44.126Z,101723.50
2023-05-11T18:28:12.631Z,101727.03
2023-05-11T18:30:41.091Z,101726.22
2023-05-11T18:33:11.634Z,101735.00
2023-05-11T18:35:41.704Z,101738.56
2023-05-11T18:38:10.125Z,101735.06
2023-05-11T18:40:38.483Z,101745.63
2023-05-11T18:43:06.862Z,101736.81
2023-05-11T18:45:35.303Z,101742.13
2023-05-11T18:48:04.714Z,101743.03
2023-05-11T18:50:34.784Z,101739.50
2023-05-11T18:53:03.242Z,101743.03
2023-05-11T18:55:41.117Z,101740.41
2023-05-11T18:58:20.418Z,101741.31
2023-05-11T19:00:49.644Z,101730.78
2023-05-11T19:03:20.947Z,101740.47
2023-05-11T19:05:52.084Z,101731.69
2023-05-11T19:08:20.693Z,101740.47
2023-05-11T19:10:49.509Z,101747.53
2023-05-11T19:13:18.645Z,101755.47
2023-05-11T19:15:47.454Z,101751.06
2023-05-11T19:18:17.264Z,101753.69
2023-05-11T19:20:45.995Z,101751.97
2023-05-11T19:23:15.915Z,101753.69
2023-05-11T19:25:44.468Z,101762.50
2023-05-11T19:28:12.911Z,101759.84
2023-05-11T19:30:41.480Z,101766.88
2023-05-11T19:33:09.909Z,101761.63
2023-05-11T19:35:38.359Z,101760.75
2023-05-11T19:38:07.321Z,101769.53
2023-05-11T19:40:46.019Z,101775.69
2023-05-11T19:43:15.249Z,101772.16
2023-05-11T19:45:45.478Z,101782.75
2023-05-11T19:48:14.620Z,101773.94
2023-05-11T19:50:43.333Z,101783.59
2023-05-11T19:53:12.371Z,101780.09
2023-05-11T19:55:42.304Z,101781.84
2023-05-11T19:58:10.889Z,101783.63
2023-05-11T20:00:41.070Z,101783.63
2023-05-11T20:03:09.584Z,101775.69
2023-05-11T20:05:38.421Z,101789.75
2023-05-11T20:08:07.835Z,101789.75
2023-05-11T20:10:37.795Z,101791.53
2023-05-11T20:13:08.314Z,101785.34
2023-05-11T20:15:36.829Z,101785.34
2023-05-11T20:18:05.524Z,101787.97
2023-05-11T20:20:34.718Z,101791.50
2023-05-11T20:23:03.521Z,101794.16
2023-05-11T20:25:32.133Z,101784.50
2023-05-11T20:28:00.950Z,101784.47
2023-05-11T20:30:30.787Z,101772.16
2023-05-11T20:35:31.163Z,101766.00
2023-05-11T20:37:59.629Z,101770.41
2023-05-11T20:40:28.540Z,101763.31
2023-05-11T20:42:56.910Z,101758.94
2023-05-11T20:45:25.502Z,101756.31
2023-05-11T20:47:55.496Z,101758.06
2023-05-11T20:50:24.740Z,101763.31
2023-05-11T20:52:53.317Z,101761.56
2023-05-11T20:55:22.434Z,101756.28
2023-05-11T20:57:50.894Z,101747.50
2023-05-11T21:00:19.848Z,101740.47
2023-05-11T21:02:48.734Z,101754.50
2023-05-11T21:05:19.540Z,101763.31
2023-05-11T21:07:48.002Z,101772.09
2023-05-11T21:10:16.967Z,101759.78
2023-05-11T21:12:45.514Z,101761.53
2023-05-11T21:15:14.236Z,101767.69
2023-05-11T21:17:42.970Z,101758.03
2023-05-11T21:20:12.641Z,101765.03
2023-05-11T21:22:42.460Z,101752.69
2023-05-11T21:25:12.762Z,101753.56
2023-05-11T21:27:41.564Z,101754.41
2023-05-11T21:30:11.182Z,101768.44
2023-05-11T21:32:39.692Z,101770.19
2023-05-11T21:35:09.581Z,101770.19
2023-05-11T21:37:38.115Z,101770.13
2023-05-11T21:40:12.091Z,101771.88
2023-05-11T21:42:40.396Z,101785.94
2023-05-11T21:45:10.607Z,101785.88
2023-05-11T21:47:39.452Z,101784.13
2023-05-11T21:50:10.991Z,101786.75
2023-05-11T21:52:39.708Z,101787.59
2023-05-11T21:55:11.101Z,101795.53
2023-05-11T21:57:39.647Z,101787.63
2023-05-11T22:00:11.128Z,101763.94
2023-05-11T22:02:41.471Z,101774.44
2023-05-11T22:05:11.449Z,101760.41
2023-05-11T22:07:40.098Z,101773.53
2023-05-11T22:10:13.632Z,101773.53
2023-05-11T22:12:44.124Z,101772.66
2023-05-11T22:15:14.438Z,101775.28
2023-05-11T22:17:45.164Z,101781.41
2023-05-11T22:20:14.433Z,101779.66
2023-05-11T22:22:43.474Z,101780.53
2023-05-11T22:25:16.672Z,101774.38
2023-05-11T22:27:46.264Z,101772.63
2023-05-11T22:30:15.119Z,101762.91
2023-05-11T22:32:48.680Z,101759.44
2023-05-11T22:35:17.578Z,101760.31
2023-05-11T22:37:46.075Z,101760.25
2023-05-11T22:40:16.282Z,101757.66
2023-05-11T22:42:44.919Z,101757.63
2023-05-11T22:45:13.561Z,101755.84
2023-05-11T22:47:42.307Z,101751.44
2023-05-11T22:50:12.201Z,101759.31
2023-05-11T22:52:40.558Z,101752.31
2023-05-11T22:55:10.662Z,101760.22
2023-05-11T22:57:40.381Z,101755.78
2023-05-11T23:00:10.993Z,101755.81
2023-05-11T23:02:39.579Z,101759.31
2023-05-11T23:05:09.324Z,101750.53
2023-05-11T23:07:37.944Z,101751.44
2023-05-11T23:10:07.750Z,101752.31
2023-05-11T23:12:36.298Z,101753.19
2023-05-11T23:15:08.481Z,101754.06
2023-05-11T23:17:37.104Z,101757.59
2023-05-11T23:20:06.936Z,101755.84
2023-05-11T23:22:35.423Z,101746.19
2023-05-11T23:25:04.029Z,101747.06
2023-05-11T23:27:32.461Z,101747.06
2023-05-11T23:30:00.873Z,101746.19
2023-05-11T23:32:30.842Z,101750.59
2023-05-11T23:34:59.307Z,101745.31
2023-05-11T23:37:28.063Z,101738.28
2023-05-11T23:39:56.566Z,101744.41
2023-05-11T23:42:25.228Z,101741.81
2023-05-11T23:44:53.904Z,101741.81
2023-05-11T23:47:22.523Z,101748.84
2023-05-11T23:49:52.514Z,101740.97
2023-05-11T23:52:28.066Z,101748.00
2023-05-11T23:54:57.116Z,101741.84
2023-05-11T23:57:26.077Z,101735.72
2023-05-11T23:59:54.505Z,101734.84
